createdAt,value
2019-03-22T00:01:00.405Z,23.17
2019-03-22T00:03:28.023Z,24.67
2019-03-22T00:05:55.453Z,21.08
2019-03-22T00:08:22.861Z,24.00
2019-03-22T00:10:50.252Z,18.30
2019-03-22T00:13:17.658Z,18.27
2019-03-22T00:15:45.112Z,20.55
2019-03-22T00:18:12.566Z,20.48
2019-03-22T00:20:40.127Z,16.55
2019-03-22T00:23:08.038Z,20.85
2019-03-22T00:25:35.882Z,20.77
2019-03-22T00:28:03.310Z,24.95
2019-03-22T00:30:30.928Z,17.90
2019-03-22T00:32:58.329Z,21.20
2019-03-22T00:35:25.770Z,18.50
2019-03-22T00:37:54.135Z,17.95
2019-03-22T00:40:21.549Z,19.73
2019-03-22T00:42:48.971Z,19.52
2019-03-22T00:45:16.374Z,22.60
2019-03-22T00:47:43.805Z,17.62
2019-03-22T00:50:11.198Z,20.23
2019-03-22T00:52:38.617Z,23.52
2019-03-22T00:55:06.006Z,17.80
2019-03-22T00:57:33.424Z,17.92
2019-03-22T01:00:00.985Z,17.25
2019-03-22T01:02:28.553Z,22.90
2019-03-22T01:04:55.934Z,18.75
2019-03-22T01:07:23.341Z,25.95
2019-03-22T01:09:50.745Z,16.65
2019-03-22T01:12:18.161Z,24.02
2019-03-22T01:14:45.638Z,20.98
2019-03-22T01:17:13.158Z,20.83
2019-03-22T01:19:40.624Z,20.73
2019-03-22T01:22:08.063Z,20.08
2019-03-22T01:24:35.484Z,22.30
2019-03-22T01:27:03.042Z,21.83
2019-03-22T01:29:30.452Z,19.70
2019-03-22T01:31:57.867Z,19.98
2019-03-22T01:34:25.343Z,22.23
2019-03-22T01:36:52.781Z,24.92
2019-03-22T01:39:20.187Z,15.77
2019-03-22T01:41:47.600Z,17.65
2019-03-22T01:44:15.000Z,16.95
2019-03-22T01:46:42.578Z,16.27
2019-03-22T01:49:10.033Z,15.90
2019-03-22T01:51:37.642Z,17.27
2019-03-22T01:54:06.014Z,21.67
2019-03-22T01:56:33.427Z,15.70
2019-03-22T01:59:00.838Z,19.25
2019-03-22T02:01:28.356Z,17.23
2019-03-22T02:03:55.794Z,17.60
2019-03-22T02:06:23.229Z,18.52
2019-03-22T02:08:50.642Z,20.62
2019-03-22T02:11:18.183Z,15.30
2019-03-22T02:13:45.955Z,14.32
2019-03-22T02:16:13.348Z,18.58
2019-03-22T02:18:40.790Z,15.32
2019-03-22T02:21:08.419Z,22.83
2019-03-22T02:23:35.795Z,18.02
2019-03-22T02:26:03.209Z,16.00
2019-03-22T02:28:30.619Z,20.98
2019-03-22T02:30:58.182Z,16.20
2019-03-22T02:33:25.711Z,17.00
2019-03-22T02:35:53.109Z,13.68
2019-03-22T02:38:20.520Z,19.27
2019-03-22T02:40:47.930Z,25.88
2019-03-22T02:43:15.348Z,18.62
2019-03-22T02:45:43.981Z,20.70
2019-03-22T02:48:11.389Z,15.65
2019-03-22T02:50:38.837Z,21.80
2019-03-22T02:53:07.018Z,16.00
2019-03-22T02:55:34.553Z,16.80
2019-03-22T02:58:01.988Z,20.75
2019-03-22T03:00:29.406Z,20.88
2019-03-22T03:02:56.801Z,16.08
2019-03-22T03:05:24.219Z,18.80
2019-03-22T03:07:51.623Z,20.65
2019-03-22T03:10:19.258Z,17.85
2019-03-22T03:12:46.821Z,20.15
2019-03-22T03:15:14.215Z,14.60
2019-03-22T03:17:41.807Z,17.12
2019-03-22T03:20:09.861Z,22.30
2019-03-22T03:22:37.311Z,17.80
2019-03-22T03:25:06.183Z,16.92
2019-03-22T03:27:33.582Z,17.62
2019-03-22T03:30:01.065Z,20.83
2019-03-22T03:32:28.724Z,19.02
2019-03-22T03:34:56.138Z,23.90
2019-03-22T03:37:23.523Z,15.88
2019-03-22T03:39:50.980Z,22.50
2019-03-22T03:42:18.995Z,17.40
2019-03-22T03:44:46.382Z,18.02
2019-03-22T03:47:13.869Z,20.05
2019-03-22T03:49:41.265Z,20.35
2019-03-22T03:52:08.846Z,20.05
2019-03-22T03:54:36.715Z,17.27
2019-03-22T03:57:04.313Z,22.50
2019-03-22T03:59:31.720Z,17.35
2019-03-22T04:01:59.542Z,17.80
2019-03-22T04:04:27.029Z,18.45
2019-03-22T04:06:54.359Z,15.50
2019-03-22T04:09:21.875Z,17.17
2019-03-22T04:11:49.307Z,25.62
2019-03-22T04:14:16.763Z,15.20
2019-03-22T04:16:44.171Z,35.80
2019-03-22T04:19:11.581Z,19.23
2019-03-22T04:21:39.069Z,17.83
2019-03-22T04:24:06.654Z,21.15
2019-03-22T04:26:34.085Z,15.20
2019-03-22T04:29:07.645Z,19.37
2019-03-22T04:31:28.955Z,18.65
2019-03-22T04:33:56.381Z,16.52
2019-03-22T04:36:24.539Z,16.90
2019-03-22T04:38:51.932Z,22.15
2019-03-22T04:41:19.334Z,26.58
2019-03-22T04:43:46.720Z,19.35
2019-03-22T04:46:14.146Z,15.70
2019-03-22T04:48:42.633Z,14.38
2019-03-22T04:51:10.034Z,15.80
2019-03-22T04:53:37.532Z,18.52
2019-03-22T04:56:04.978Z,18.08
2019-03-22T04:58:32.409Z,20.33
2019-03-22T05:00:59.889Z,22.40
2019-03-22T05:03:27.376Z,18.15
2019-03-22T05:05:54.771Z,17.20
2019-03-22T05:08:22.176Z,16.12
2019-03-22T05:10:49.576Z,17.20
2019-03-22T05:13:16.980Z,14.82
2019-03-22T05:15:44.423Z,20.48
2019-03-22T05:18:11.810Z,18.10
2019-03-22T05:20:39.206Z,16.27
2019-03-22T05:23:06.634Z,14.80
2019-03-22T05:25:34.090Z,15.02
2019-03-22T05:28:01.482Z,18.08
2019-03-22T05:33:31.054Z,27.48
2019-03-22T05:35:58.489Z,19.48
2019-03-22T05:38:25.944Z,15.52
2019-03-22T05:40:53.342Z,22.73
2019-03-22T05:43:20.759Z,20.48
2019-03-22T05:45:48.175Z,16.65
2019-03-22T05:48:15.637Z,16.90
2019-03-22T05:50:43.039Z,16.48
2019-03-22T05:53:10.505Z,21.27
2019-03-22T05:55:37.899Z,17.33
2019-03-22T05:58:05.302Z,17.95
2019-03-22T06:00:32.729Z,16.08
2019-03-22T06:03:00.133Z,17.37
2019-03-22T06:05:27.567Z,17.42
2019-03-22T06:07:54.967Z,19.62
2019-03-22T06:10:22.431Z,14.20
2019-03-22T06:12:50.052Z,19.80
2019-03-22T06:15:17.448Z,23.38
2019-03-22T06:17:51.592Z,18.67
2019-03-22T06:20:12.330Z,15.48
2019-03-22T06:22:39.711Z,20.17
2019-03-22T06:25:07.162Z,19.08
2019-03-22T06:27:34.574Z,30.10
2019-03-22T06:30:01.968Z,25.45
2019-03-22T06:32:29.413Z,16.75
2019-03-22T06:34:56.825Z,20.95
2019-03-22T06:37:24.239Z,16.08
2019-03-22T06:39:51.653Z,18.58
2019-03-22T06:42:19.871Z,16.55
2019-03-22T06:44:47.457Z,20.37
2019-03-22T06:47:14.899Z,21.67
2019-03-22T06:49:42.334Z,20.40
2019-03-22T06:52:09.952Z,32.15
2019-03-22T06:54:37.446Z,20.75
2019-03-22T06:57:04.875Z,18.65
2019-03-22T06:59:32.324Z,19.40
2019-03-22T07:01:59.756Z,24.98
2019-03-22T07:04:27.434Z,19.62
2019-03-22T07:06:54.902Z,28.48
2019-03-22T07:09:22.309Z,28.60
2019-03-22T07:11:49.919Z,24.85
2019-03-22T07:14:17.325Z,37.88
2019-03-22T07:16:44.833Z,311.85
2019-03-22T07:19:12.233Z,238.55
2019-03-22T07:21:39.670Z,104.32
2019-03-22T07:24:07.232Z,176.15
2019-03-22T07:26:34.646Z,49.28
2019-03-22T07:53:36.841Z,21.40
2019-03-22T08:42:40.292Z,21.08
2019-03-22T08:45:07.711Z,24.00
2019-03-22T08:47:35.147Z,33.85
2019-03-22T08:52:29.635Z,26.00
2019-03-22T08:54:56.991Z,22.87
2019-03-22T08:57:25.157Z,27.40
2019-03-22T08:59:51.851Z,24.30
2019-03-22T09:02:19.278Z,25.15
2019-03-22T09:04:48.195Z,27.40
2019-03-22T09:07:15.860Z,22.30
2019-03-22T09:09:43.282Z,24.37
2019-03-22T09:12:10.783Z,24.67
2019-03-22T09:14:38.322Z,31.87
2019-03-22T09:17:05.772Z,29.10
2019-03-22T09:19:33.198Z,23.97
2019-03-22T09:22:00.718Z,28.85
2019-03-22T09:24:38.488Z,23.90
2019-03-22T09:26:55.577Z,69.20
2019-03-22T09:29:23.024Z,22.90
2019-03-22T09:31:53.494Z,26.80
2019-03-22T09:39:12.365Z,27.73
2019-03-22T09:41:39.839Z,64.93
2019-03-22T09:44:07.289Z,28.65
2019-03-22T09:46:34.687Z,21.90
2019-03-22T09:49:02.836Z,24.70
2019-03-22T09:51:30.244Z,26.25
2019-03-22T10:03:46.049Z,42.20
2019-03-22T10:33:22.740Z,29.10
2019-03-22T10:35:40.642Z,26.10
2019-03-22T10:38:16.001Z,34.15
2019-03-22T10:40:35.562Z,26.70
2019-03-22T10:43:03.976Z,51.35
2019-03-22T10:45:31.517Z,36.70
2019-03-22T10:47:58.966Z,27.03
2019-03-22T10:50:26.446Z,40.90
2019-03-22T10:52:55.062Z,32.53
2019-03-22T10:55:29.783Z,41.35
2019-03-22T10:57:50.143Z,23.85
2019-03-22T11:00:17.576Z,21.20
2019-03-22T11:02:45.224Z,26.83
2019-03-22T11:05:12.644Z,23.95
2019-03-22T11:07:40.077Z,32.25
2019-03-22T11:10:07.502Z,28.13
2019-03-22T11:15:02.003Z,29.85
2019-03-22T11:17:29.499Z,29.65
2019-03-22T11:19:57.604Z,27.83
2019-03-22T11:22:24.721Z,40.13
2019-03-22T11:27:19.147Z,28.35
2019-03-22T11:54:18.915Z,39.13
2019-03-22T11:56:46.471Z,39.80
2019-03-22T11:59:13.888Z,29.02
2019-03-22T12:01:41.313Z,33.83
2019-03-22T12:04:08.894Z,35.00
2019-03-22T12:06:36.324Z,36.07
2019-03-22T12:31:06.621Z,36.63
2019-03-22T12:33:34.109Z,40.40
2019-03-22T12:36:01.528Z,40.55
2019-03-22T12:38:29.165Z,37.28
2019-03-22T12:40:56.590Z,39.05
2019-03-22T12:43:24.014Z,40.85
2019-03-22T12:45:51.475Z,41.60
2019-03-22T13:10:24.347Z,42.15
2019-03-22T13:12:51.758Z,37.00
2019-03-22T13:15:19.172Z,55.45
2019-03-22T13:25:07.544Z,62.67
2019-03-22T13:27:34.947Z,52.10
2019-03-22T13:30:02.539Z,51.20
2019-03-22T13:32:29.957Z,35.17
2019-03-22T13:34:57.542Z,45.47
2019-03-22T13:37:24.982Z,43.63
2019-03-22T13:39:52.402Z,44.17
2019-03-22T13:42:20.636Z,47.62
2019-03-22T13:44:48.200Z,45.15
2019-03-22T13:47:15.595Z,39.25
2019-03-22T13:49:43.665Z,36.20
2019-03-22T13:52:11.106Z,55.95
2019-03-22T13:54:38.593Z,39.50
2019-03-22T13:57:06.169Z,58.40
2019-03-22T13:59:33.875Z,34.72
2019-03-22T14:02:01.305Z,50.25
2019-03-22T14:04:28.715Z,43.13
2019-03-22T14:06:56.183Z,58.47
2019-03-22T14:09:23.837Z,66.53
2019-03-22T14:11:51.271Z,79.47
2019-03-22T14:14:18.712Z,38.33
2019-03-22T14:16:46.289Z,46.92
2019-03-22T14:19:13.849Z,53.15
2019-03-22T14:21:41.333Z,47.33
2019-03-22T14:24:08.747Z,37.97
2019-03-22T14:38:52.695Z,50.85
2019-03-22T17:02:42.263Z,35.55
2019-03-22T17:05:09.826Z,43.92
2019-03-22T17:07:37.236Z,33.00
2019-03-22T17:10:05.391Z,35.45
2019-03-22T17:12:32.983Z,33.22
2019-03-22T17:15:00.580Z,40.55
2019-03-22T17:17:28.006Z,44.33
2019-03-22T17:19:55.463Z,36.10
2019-03-22T17:22:22.873Z,38.00
2019-03-22T17:24:50.328Z,34.67
2019-03-22T17:27:17.938Z,40.35
2019-03-22T17:29:45.570Z,40.67
2019-03-22T17:32:13.122Z,39.33
2019-03-22T17:41:24.653Z,32.78
2019-03-22T17:43:52.093Z,35.38
2019-03-22T17:46:19.494Z,36.05
2019-03-22T17:56:08.078Z,30.37
2019-03-22T17:58:35.487Z,33.10
2019-03-22T18:01:03.011Z,27.50
2019-03-22T18:03:30.576Z,31.48
2019-03-22T18:05:57.982Z,32.08
2019-03-22T18:08:25.399Z,28.90
2019-03-22T18:10:52.831Z,31.65
2019-03-22T18:13:20.499Z,34.25
2019-03-22T18:15:47.985Z,33.70
2019-03-22T18:18:15.409Z,36.05
2019-03-22T18:20:43.010Z,26.55
2019-03-22T18:23:10.422Z,27.87
2019-03-22T18:25:37.902Z,29.47
2019-03-22T18:28:05.328Z,34.20
2019-03-22T18:30:32.786Z,33.88
2019-03-22T18:33:00.356Z,26.62
2019-03-22T18:35:27.802Z,29.42
2019-03-22T18:37:55.191Z,33.20
2019-03-22T18:40:23.532Z,28.27
2019-03-22T18:42:50.972Z,36.38
2019-03-22T18:45:18.386Z,32.30
2019-03-22T18:47:45.862Z,31.15
2019-03-22T18:50:13.947Z,33.55
2019-03-22T18:52:41.346Z,29.75
2019-03-22T18:55:08.895Z,29.65
2019-03-22T18:57:36.353Z,28.90
2019-03-22T19:00:08.554Z,35.60
2019-03-22T19:02:36.110Z,37.58
2019-03-22T19:05:03.524Z,27.13
2019-03-22T19:07:30.939Z,36.70
2019-03-22T19:09:58.760Z,34.25
2019-03-22T19:12:26.491Z,36.95
2019-03-22T19:14:54.284Z,39.88
2019-03-22T19:17:21.951Z,39.88
2019-03-22T19:19:49.375Z,28.23
2019-03-22T19:22:16.821Z,35.00
2019-03-22T19:24:44.262Z,31.90
2019-03-22T19:27:11.723Z,39.50
2019-03-22T19:29:39.235Z,33.85
2019-03-22T19:32:13.440Z,33.15
2019-03-22T19:34:34.284Z,36.78
2019-03-22T19:37:01.689Z,31.80
2019-03-22T19:39:29.183Z,29.60
2019-03-22T19:41:56.615Z,37.83
2019-03-22T19:44:24.069Z,37.60
2019-03-22T19:46:51.526Z,30.83
2019-03-22T19:49:18.962Z,35.92
2019-03-22T19:51:46.383Z,31.48
2019-03-22T19:54:13.788Z,30.23
2019-03-22T19:56:41.263Z,28.17
2019-03-22T19:59:08.775Z,30.30
2019-03-22T20:01:36.306Z,25.48
2019-03-22T20:04:03.779Z,30.50
2019-03-22T20:06:31.194Z,28.38
2019-03-22T20:08:58.727Z,33.00
2019-03-22T20:11:26.263Z,32.38
2019-03-22T20:13:53.881Z,36.78
2019-03-22T20:16:21.340Z,31.67
2019-03-22T20:18:48.747Z,32.05
2019-03-22T20:21:16.253Z,31.45
2019-03-22T20:23:53.243Z,27.52
2019-03-22T20:26:11.089Z,31.30
2019-03-22T20:28:38.568Z,37.53
2019-03-22T20:31:06.238Z,40.10
2019-03-22T20:33:33.900Z,36.85
2019-03-22T20:36:01.316Z,27.23
2019-03-22T20:38:28.741Z,28.05
2019-03-22T20:40:56.158Z,33.05
2019-03-22T20:43:23.777Z,32.60
2019-03-22T20:45:51.582Z,29.95
2019-03-22T20:48:19.405Z,30.62
2019-03-22T20:50:46.813Z,37.67
2019-03-22T20:53:14.239Z,30.33
2019-03-22T20:55:41.667Z,35.58
2019-03-22T20:58:09.187Z,39.35
2019-03-22T21:00:36.629Z,31.40
2019-03-22T21:03:04.185Z,32.20
2019-03-22T21:05:31.638Z,33.20
2019-03-22T21:07:59.179Z,29.87
2019-03-22T21:10:26.620Z,34.38
2019-03-22T21:12:54.075Z,35.08
2019-03-22T21:15:24.664Z,33.35
2019-03-22T21:17:49.905Z,32.53
2019-03-22T21:20:17.319Z,35.10
2019-03-22T21:22:44.952Z,40.33
2019-03-22T21:25:12.418Z,36.03
2019-03-22T21:27:39.923Z,34.50
2019-03-22T21:30:08.541Z,32.38
2019-03-22T21:32:44.676Z,30.30
2019-03-22T21:35:03.401Z,36.17
2019-03-22T21:37:30.924Z,29.12
2019-03-22T21:39:58.327Z,29.35
2019-03-22T21:42:26.340Z,36.47
2019-03-22T21:44:53.734Z,25.50
2019-03-22T21:47:21.590Z,30.50
2019-03-22T21:49:49.003Z,32.75
2019-03-22T21:52:16.488Z,29.30
2019-03-22T21:54:43.887Z,29.37
2019-03-22T21:57:11.286Z,24.05
2019-03-22T21:59:39.559Z,30.45
2019-03-22T22:02:06.971Z,33.90
2019-03-22T22:04:34.491Z,27.95
2019-03-22T22:07:01.883Z,33.80
2019-03-22T22:09:29.302Z,32.08
2019-03-22T22:11:56.745Z,31.05
2019-03-22T22:14:24.194Z,35.45
2019-03-22T22:16:51.633Z,34.50
2019-03-22T22:19:19.435Z,29.17
2019-03-22T22:21:46.995Z,39.33
2019-03-22T22:24:14.489Z,32.10
2019-03-22T22:26:41.885Z,34.05
2019-03-22T22:29:09.625Z,28.33
2019-03-22T22:31:37.048Z,31.08
2019-03-22T22:34:04.541Z,32.17
2019-03-22T22:36:32.044Z,31.73
2019-03-22T22:39:00.231Z,30.48
2019-03-22T22:41:27.667Z,24.75
2019-03-22T22:43:55.101Z,28.25
2019-03-22T22:46:22.557Z,27.37
2019-03-22T22:48:49.984Z,31.95
2019-03-22T22:51:17.379Z,34.75
2019-03-22T22:53:44.836Z,29.67
2019-03-22T22:56:12.353Z,34.35
2019-03-22T22:58:39.759Z,32.63
2019-03-22T23:01:08.017Z,28.70
2019-03-22T23:03:35.603Z,33.70
2019-03-22T23:06:09.439Z,34.08
2019-03-22T23:08:30.419Z,37.70
2019-03-22T23:10:58.109Z,27.95
2019-03-22T23:13:26.371Z,33.03
2019-03-22T23:15:53.866Z,31.62
2019-03-22T23:18:21.258Z,27.77
2019-03-22T23:20:48.746Z,32.60
2019-03-22T23:23:16.172Z,36.65
2019-03-22T23:25:43.603Z,28.35
2019-03-22T23:28:11.087Z,27.25
2019-03-22T23:30:38.555Z,27.45
2019-03-22T23:33:05.973Z,27.80
2019-03-22T23:35:33.408Z,26.12
2019-03-22T23:38:01.540Z,33.03
2019-03-22T23:40:29.873Z,30.45
2019-03-22T23:42:57.384Z,30.35
2019-03-22T23:45:24.834Z,29.98
2019-03-22T23:47:53.028Z,31.75
2019-03-22T23:50:19.724Z,28.75
2019-03-22T23:52:47.123Z,26.02
2019-03-22T23:55:15.178Z,25.37
2019-03-22T23:57:42.584Z,30.52
